Terminal Aerodrome Forecast
Issued by NWS

Current Version | Previous Version | Graphics & Text | Print | Product List | Glossary Off
Versions: 1 2 3 4 5 6 7 8 9 10 11 12 13 14 15 16

000
FTUS41 KPBZ 031130
TAFHLG
TAF
KHLG 031130Z 0312/0412 20005KT P6SM SCT080
     FM031500 23008G16KT P6SM SCT060
     FM040100 17005KT P6SM SKC=

USA.gov is the U.S. government's official web portal to all federal, state and local government web resources and services.